LVS105 SADL-SADL

Flight info

Callsign LVS105
Flight time N/A
Altitude 1000
Route LOCAL
Aircraft SIRA/L-SFG/C

Departure

Time 2026-04-13 23:56
Airport La Plata Airport (SADL)

Arrival

Time N/A
Airport La Plata Airport (SADL)
Time Latitude Longitude Altitude Speed Heading
2026-04-13 23:49 -34.96584 -57.89521 60 ft 0 kts 286°
2026-04-13 23:51 -34.96584 -57.89523 60 ft 1 kts 285°
2026-04-13 23:51 -34.96596 -57.89514 56 ft 15 kts 128°
2026-04-13 23:51 -34.96666 -57.89440 60 ft 14 kts 189°
2026-04-13 23:52 -34.96760 -57.89467 58 ft 14 kts 191°
2026-04-13 23:52 -34.96857 -57.89494 60 ft 14 kts 193°
2026-04-13 23:52 -34.96955 -57.89524 60 ft 15 kts 191°
2026-04-13 23:52 -34.97102 -57.89568 55 ft 27 kts 195°
2026-04-13 23:53 -34.97268 -57.89618 59 ft 22 kts 192°
2026-04-13 23:53 -34.97406 -57.89663 57 ft 19 kts 193°
2026-04-13 23:53 -34.97517 -57.89627 60 ft 17 kts 137°
2026-04-13 23:53 -34.97581 -57.89528 60 ft 13 kts 62°
2026-04-13 23:54 -34.97506 -57.89484 57 ft 13 kts 15°
2026-04-13 23:54 -34.97446 -57.89465 59 ft 0 kts 15°
2026-04-13 23:55 -34.97425 -57.89458 56 ft 23 kts 14°
2026-04-13 23:55 -34.97044 -57.89329 109 ft 81 kts
2026-04-13 23:55 -34.96417 -57.89150 326 ft 94 kts 20°
2026-04-13 23:56 -34.95786 -57.89029 681 ft 95 kts 354°
2026-04-13 23:56 -34.95161 -57.89508 775 ft 119 kts 321°
2026-04-13 23:56 -34.94518 -57.90127 916 ft 118 kts 344°
2026-04-13 23:56 -34.93755 -57.90469 940 ft 116 kts 339°
2026-04-13 23:57 -34.93008 -57.90856 977 ft 110 kts 348°
2026-04-13 23:57 -34.92284 -57.91123 994 ft 110 kts 349°
2026-04-13 23:57 -34.91548 -57.91395 990 ft 111 kts 351°
2026-04-13 23:57 -34.90808 -57.91597 995 ft 107 kts 355°
2026-04-13 23:58 -34.90113 -57.91780 1089 ft 97 kts 357°
2026-04-13 23:58 -34.89441 -57.91905 1213 ft 102 kts 358°
2026-04-13 23:58 -34.88725 -57.91933 1333 ft 103 kts 12°
2026-04-13 23:58 -34.88012 -57.91997 1492 ft 106 kts 359°
2026-04-13 23:59 -34.87286 -57.92144 1499 ft 105 kts 357°
2026-04-13 23:59 -34.86579 -57.92302 1499 ft 102 kts 358°
2026-04-13 23:59 -34.85890 -57.92459 1499 ft 100 kts 358°
2026-04-13 23:59 -34.85203 -57.92611 1501 ft 100 kts
2026-04-14 00:00 -34.84548 -57.92503 1492 ft 94 kts 20°
2026-04-14 00:00 -34.83897 -57.92353 1494 ft 96 kts 18°
2026-04-14 00:00 -34.83238 -57.92194 1493 ft 97 kts 18°
2026-04-14 00:00 -34.82577 -57.92036 1496 ft 99 kts 18°
2026-04-14 00:01 -34.81901 -57.91875 1497 ft 99 kts 18°
2026-04-14 00:01 -34.81204 -57.91943 1481 ft 110 kts 341°
2026-04-14 00:01 -34.80740 -57.92724 1466 ft 126 kts 289°
2026-04-14 00:01 -34.80921 -57.93765 1465 ft 129 kts 226°
2026-04-14 00:02 -34.81693 -57.94003 1468 ft 113 kts 155°
2026-04-14 00:02 -34.82348 -57.93617 1517 ft 104 kts 135°
2026-04-14 00:02 -34.82969 -57.93110 1479 ft 107 kts 134°
2026-04-14 00:02 -34.83573 -57.92586 1491 ft 107 kts 133°
2026-04-14 00:03 -34.84179 -57.92056 1492 ft 107 kts 133°
2026-04-14 00:03 -34.84784 -57.91521 1491 ft 107 kts 133°
2026-04-14 00:03 -34.85388 -57.90983 1490 ft 107 kts 134°
2026-04-14 00:03 -34.85989 -57.90444 1490 ft 108 kts 132°
2026-04-14 00:04 -34.86602 -57.89905 1489 ft 111 kts 140°
2026-04-14 00:04 -34.87395 -57.89832 1491 ft 122 kts 181°
2026-04-14 00:04 -34.88247 -57.89925 1492 ft 122 kts 175°
2026-04-14 00:04 -34.89043 -57.89987 1493 ft 122 kts 175°
2026-04-14 00:05 -34.89876 -57.90256 1492 ft 127 kts 198°
2026-04-14 00:05 -34.90643 -57.90761 1491 ft 125 kts 193°
2026-04-14 00:05 -34.91463 -57.91067 1493 ft 122 kts 186°
2026-04-14 00:05 -34.92264 -57.91007 1497 ft 115 kts 160°
2026-04-14 00:06 -34.93055 -57.90841 1499 ft 116 kts 161°
2026-04-14 00:06 -34.93850 -57.90661 1493 ft 116 kts 160°
2026-04-14 00:06 -34.94634 -57.90454 1495 ft 116 kts 159°
2026-04-14 00:06 -34.95421 -57.90242 1497 ft 116 kts 159°
2026-04-14 00:07 -34.96210 -57.90039 1495 ft 116 kts 161°
2026-04-14 00:07 -34.97006 -57.89860 1493 ft 116 kts 161°
2026-04-14 00:07 -34.97778 -57.89699 1496 ft 116 kts 162°
2026-04-14 00:07 -34.98571 -57.89879 1488 ft 125 kts 217°
2026-04-14 00:08 -34.98849 -57.90815 1486 ft 119 kts 288°
2026-04-14 00:08 -34.98343 -57.91457 1493 ft 103 kts 349°
2026-04-14 00:08 -34.97665 -57.91735 1495 ft 104 kts 347°
2026-04-14 00:08 -34.96983 -57.92021 1494 ft 103 kts 350°
2026-04-14 00:09 -34.96291 -57.92264 1502 ft 103 kts 351°
2026-04-14 00:09 -34.95595 -57.92506 1504 ft 104 kts 352°
2026-04-14 00:09 -34.94961 -57.92342 1490 ft 95 kts 49°
2026-04-14 00:09 -34.94975 -57.91564 1489 ft 107 kts 119°
2026-04-14 00:10 -34.95703 -57.91252 1491 ft 119 kts 171°